Time;durP1;ratioP1;P1;durP2;ratioP2;P2;SDS_P1;SDS_P2;PMS_P1;PMS_P2;Temp;Humidity;BMP_temperature;BMP_pressure;BME280_temperature;BME280_humidity;BME280_pressure;Samples;Min_cycle;Max_cycle;Signal;HPM_P1;HPM_P2
2022/03/05 00:00:43;;;;;;;;;54.75;39.25;;;;;14.80;61.00;101552.00;5080607;28;61912;-75
2022/03/05 00:03:09;;;;;;;;;53.75;43.25;;;;;14.82;60.82;101552.06;5079340;28;63650;-75
2022/03/05 00:05:35;;;;;;;;;60.50;42.25;;;;;14.77;61.16;101546.59;5096984;27;62053;-75
2022/03/05 00:08:00;;;;;;;;;58.50;43.00;;;;;14.76;61.08;101547.47;5081085;28;61918;-75
2022/03/05 00:10:26;;;;;;;;;59.75;43.25;;;;;14.72;61.45;101548.19;5079525;28;61731;-75
2022/03/05 00:12:52;;;;;;;;;57.25;40.75;;;;;14.68;61.45;101547.16;5079678;27;62888;-75
2022/03/05 00:15:18;;;;;;;;;62.00;43.00;;;;;14.64;61.63;101544.31;5081404;27;61852;-75
2022/03/05 00:17:47;;;;;;;;;58.50;41.00;;;;;14.61;61.88;101542.47;5079235;28;61822;-75
2022/03/05 00:20:12;;;;;;;;;57.00;39.75;;;;;14.65;61.49;101536.47;5081309;27;61752;-75
2022/03/05 00:22:38;;;;;;;;;48.75;39.00;;;;;14.63;61.56;101538.16;5080024;27;62871;-75
2022/03/05 00:25:04;;;;;;;;;57.75;40.75;;;;;14.68;61.66;101535.69;5081290;27;61785;-75
2022/03/05 00:27:30;;;;;;;;;61.00;46.00;;;;;14.70;61.70;101539.28;5080250;27;61810;-75
2022/03/05 00:29:55;;;;;;;;;62.50;47.75;;;;;14.70;61.54;101536.66;5080205;28;61681;-75
2022/03/05 00:32:21;;;;;;;;;51.50;42.25;;;;;14.72;61.80;101538.50;5079611;27;61861;-75
2022/03/05 00:34:47;;;;;;;;;62.25;44.00;;;;;14.67;61.89;101544.44;5079521;27;61778;-75
2022/03/05 00:37:12;;;;;;;;;57.75;44.00;;;;;14.65;61.41;101540.81;5079313;27;61933;-75
2022/03/05 00:39:37;;;;;;;;;57.25;41.75;;;;;14.67;61.59;101539.16;5080045;27;62112;-75
2022/03/05 00:42:04;;;;;;;;;64.75;44.00;;;;;14.64;61.92;101539.03;5078498;27;64479;-75
2022/03/05 00:44:30;;;;;;;;;57.50;44.75;;;;;14.65;61.66;101536.47;5079974;27;61828;-75
2022/03/05 00:46:56;;;;;;;;;61.25;42.50;;;;;14.66;61.70;101540.91;5080276;27;62017;-75
2022/03/05 00:49:22;;;;;;;;;59.50;45.25;;;;;14.66;61.71;101537.38;5078906;28;61947;-75
2022/03/05 00:51:48;;;;;;;;;60.00;45.75;;;;;14.69;61.70;101527.78;5079878;27;61845;-75
2022/03/05 00:54:13;;;;;;;;;58.50;41.50;;;;;14.68;61.39;101536.56;5079332;28;61878;-75
2022/03/05 00:56:39;;;;;;;;;57.00;44.00;;;;;14.67;61.59;101529.47;5078623;27;62088;-75
2022/03/05 00:59:04;;;;;;;;;56.50;41.25;;;;;14.65;61.53;101531.19;5080700;27;61744;-75
2022/03/05 01:01:30;;;;;;;;;57.50;44.75;;;;;14.68;61.91;101527.75;5095391;27;63776;-75
2022/03/05 01:03:56;;;;;;;;;54.00;41.25;;;;;14.71;61.76;101527.84;5078982;28;62129;-75
2022/03/05 01:06:21;;;;;;;;;59.00;44.00;;;;;14.70;61.99;101526.06;5080357;27;61843;-75
2022/03/05 01:08:47;;;;;;;;;62.25;44.75;;;;;14.73;61.67;101529.72;5077720;27;61780;-75
2022/03/05 01:11:15;;;;;;;;;64.00;46.25;;;;;14.81;61.60;101537.06;5080357;27;61779;-75
2022/03/05 01:13:42;;;;;;;;;59.50;44.25;;;;;14.85;61.20;101534.59;5078786;28;62013;-75
2022/03/05 01:16:08;;;;;;;;;53.50;40.00;;;;;14.91;60.96;101532.19;5080544;27;61868;-75
2022/03/05 01:18:34;;;;;;;;;59.00;46.00;;;;;14.92;60.92;101533.09;5080251;27;62196;-75
2022/03/05 01:20:59;;;;;;;;;64.75;45.00;;;;;14.88;61.30;101533.81;5079181;27;61818;-75
2022/03/05 01:23:25;;;;;;;;;54.00;39.25;;;;;14.87;60.85;101530.28;5080747;28;61764;-75
2022/03/05 01:25:50;;;;;;;;;63.25;45.00;;;;;14.90;61.04;101529.47;5082211;27;61904;-75
2022/03/05 01:28:15;;;;;;;;;60.50;43.00;;;;;14.87;61.35;101530.28;5083594;27;62602;-75
2022/03/05 01:30:41;;;;;;;;;52.50;38.75;;;;;14.90;61.17;101524.19;5083415;28;63121;-75
2022/03/05 01:33:07;;;;;;;;;62.00;42.00;;;;;14.87;61.24;101532.03;5081813;27;61955;-75
2022/03/05 01:35:32;;;;;;;;;57.25;45.00;;;;;14.86;61.44;101524.91;5081965;27;61961;-75
2022/03/05 01:37:57;;;;;;;;;61.25;42.25;;;;;14.85;61.44;101533.72;5083681;27;62033;-75
2022/03/05 01:40:23;;;;;;;;;58.25;42.00;;;;;14.82;61.68;101530.94;5081699;27;63914;-75
2022/03/05 01:42:49;;;;;;;;;55.75;42.00;;;;;14.84;61.31;101529.25;5082238;27;62018;-75
2022/03/05 01:45:14;;;;;;;;;62.25;48.00;;;;;14.83;61.48;101533.63;5082258;28;61763;-75
2022/03/05 01:47:41;;;;;;;;;64.25;47.50;;;;;14.89;61.63;101530.34;5081820;27;62042;-75
2022/03/05 01:50:08;;;;;;;;;59.00;40.50;;;;;14.92;61.52;101533.09;5080885;27;61936;-75
2022/03/05 01:52:33;;;;;;;;;60.75;43.25;;;;;14.94;61.13;101526.13;5082787;27;62188;-75
2022/03/05 01:54:59;;;;;;;;;64.25;42.50;;;;;14.93;61.16;101526.94;5082793;27;62097;-75
2022/03/05 01:57:24;;;;;;;;;57.50;42.75;;;;;14.91;61.34;101537.47;5081901;27;62168;-75
2022/03/05 01:59:50;;;;;;;;;61.25;45.25;;;;;14.92;61.31;101538.38;5083216;28;62894;-75
2022/03/05 02:02:17;;;;;;;;;52.00;39.00;;;;;14.87;61.44;101538.19;5081567;28;61957;-75
2022/03/05 02:04:42;;;;;;;;;56.25;43.00;;;;;14.87;61.25;101532.91;5082889;27;61863;-75
2022/03/05 02:07:09;;;;;;;;;58.50;44.00;;;;;14.88;61.50;101532.06;5082755;27;62014;-75
2022/03/05 02:09:34;;;;;;;;;61.25;43.75;;;;;14.82;61.75;101534.47;5081392;28;64035;-75
2022/03/05 02:11:59;;;;;;;;;65.25;45.25;;;;;14.69;62.22;101537.47;5081716;27;61926;-75
2022/03/05 02:14:25;;;;;;;;;58.25;41.50;;;;;14.67;62.15;101542.69;5081903;28;61818;-75
2022/03/05 02:16:50;;;;;;;;;60.75;44.00;;;;;14.58;62.31;101539.69;5082015;28;61842;-75
2022/03/05 02:19:17;;;;;;;;;63.50;45.25;;;;;14.57;62.28;101535.25;5081473;27;62031;-75
2022/03/05 02:21:46;;;;;;;;;56.00;43.75;;;;;14.66;62.61;101529.44;5081928;27;61752;-75
2022/03/05 02:24:11;;;;;;;;;61.50;46.75;;;;;14.65;62.12;101528.53;5081309;28;61797;-75
2022/03/05 02:26:37;;;;;;;;;59.50;42.25;;;;;14.65;61.99;101533.81;5081641;28;61731;-75
2022/03/05 02:29:03;;;;;;;;;42.50;36.75;;;;;14.67;61.90;101528.56;5081789;27;61782;-75
2022/03/05 02:31:29;;;;;;;;;57.25;42.75;;;;;14.66;61.97;101529.44;5081866;27;62347;-75
2022/03/05 02:33:55;;;;;;;;;51.25;39.25;;;;;14.63;62.23;101524.94;5081459;27;61981;-75
2022/03/05 02:36:24;;;;;;;;;56.50;43.25;;;;;14.54;62.23;101519.22;5097495;27;61864;-75
2022/03/05 02:38:50;;;;;;;;;59.00;42.00;;;;;14.57;62.18;101521.13;5082313;27;61925;-75
2022/03/05 02:41:18;;;;;;;;;56.00;40.75;;;;;14.60;62.30;101523.91;5083134;27;62179;-75
2022/03/05 02:43:44;;;;;;;;;57.00;44.25;;;;;14.54;62.35;101516.59;5081792;27;62111;-75
2022/03/05 02:46:10;;;;;;;;;52.50;40.25;;;;;14.59;62.48;101515.09;5082898;27;61773;-75
2022/03/05 02:48:36;;;;;;;;;57.75;41.25;;;;;14.64;62.17;101516.16;5081225;27;62754;-75
2022/03/05 02:51:02;;;;;;;;;63.75;44.50;;;;;14.70;61.64;101507.56;5078041;27;61888;-75
2022/03/05 02:53:29;;;;;;;;;58.75;37.25;;;;;14.72;61.49;101503.25;5062311;28;61787;-75
2022/03/05 02:55:55;;;;;;;;;56.75;42.25;;;;;14.71;61.64;101504.06;5062761;28;62377;-75
2022/03/05 02:58:20;;;;;;;;;62.25;44.00;;;;;14.71;61.67;101504.97;5076078;28;63295;-75
2022/03/05 03:00:46;;;;;;;;;57.50;45.75;;;;;14.65;62.18;101504.75;5082847;27;61865;-75
2022/03/05 03:03:12;;;;;;;;;60.75;43.75;;;;;14.61;62.01;101501.91;5082227;27;61879;-75
2022/03/05 03:05:37;;;;;;;;;66.75;46.00;;;;;14.58;62.12;101497.41;5082742;27;62075;-75
2022/03/05 03:08:03;;;;;;;;;54.75;38.25;;;;;14.55;62.07;101494.66;5077943;28;63330;-75
2022/03/05 03:10:28;;;;;;;;;52.00;42.50;;;;;14.55;62.04;101494.66;5081103;28;62453;-75
2022/03/05 03:12:54;;;;;;;;;58.50;42.25;;;;;14.60;62.33;101493.09;5082806;27;61899;-75
2022/03/05 03:15:20;;;;;;;;;49.25;37.00;;;;;14.68;62.12;101493.41;5082607;27;61856;-75
2022/03/05 03:17:48;;;;;;;;;51.75;39.00;;;;;14.73;61.81;101497.13;5081382;27;63083;-75
2022/03/05 03:20:16;;;;;;;;;53.25;38.50;;;;;14.70;61.93;101494.38;5080773;28;61907;-75
2022/03/05 03:22:42;;;;;;;;;64.75;44.00;;;;;14.71;61.93;101497.03;5082299;27;61893;-75
2022/03/05 03:25:08;;;;;;;;;56.25;41.50;;;;;14.74;62.00;101498.94;5082703;27;61873;-75
2022/03/05 03:27:34;;;;;;;;;52.50;41.00;;;;;14.77;61.65;101492.84;5080900;27;62065;-75
2022/03/05 03:30:00;;;;;;;;;58.50;41.75;;;;;14.80;61.83;101490.31;5082414;28;62710;-75
2022/03/05 03:32:26;;;;;;;;;57.75;44.50;;;;;14.80;61.47;101498.25;5082065;28;62063;-75
2022/03/05 03:34:51;;;;;;;;;53.50;37.25;;;;;14.83;61.60;101493.09;5080683;28;62157;-75
2022/03/05 03:37:17;;;;;;;;;66.50;42.75;;;;;14.85;61.85;101492.31;5081645;27;61979;-75
2022/03/05 03:39:43;;;;;;;;;58.50;42.75;;;;;14.85;61.56;101500.22;5080310;28;62928;-75
2022/03/05 03:42:08;;;;;;;;;65.50;44.25;;;;;14.81;61.70;101500.06;5082230;27;62013;-75
2022/03/05 03:44:34;;;;;;;;;65.75;46.50;;;;;14.81;61.83;101495.66;5080611;28;62210;-75
2022/03/05 03:46:59;;;;;;;;;52.25;41.75;;;;;14.87;61.48;101502.94;5080164;27;61935;-75
2022/03/05 03:49:25;;;;;;;;;59.25;42.00;;;;;14.91;61.33;101503.13;5081448;27;61902;-75
2022/03/05 03:51:50;;;;;;;;;57.00;41.00;;;;;14.93;61.35;101501.44;5081481;27;61897;-75
2022/03/05 03:54:16;;;;;;;;;57.50;42.00;;;;;14.96;61.41;101503.28;5082010;27;61740;-75
2022/03/05 03:56:42;;;;;;;;;54.00;41.25;;;;;14.98;61.11;101498.06;5080851;27;62226;-75
2022/03/05 03:59:08;;;;;;;;;47.25;36.00;;;;;15.00;61.23;101494.63;5081608;27;61776;-75
2022/03/05 04:01:33;;;;;;;;;60.50;39.25;;;;;15.03;61.16;101497.38;5080015;28;61917;-75
2022/03/05 04:03:59;;;;;;;;;53.75;41.50;;;;;15.05;61.09;101493.06;5081709;27;62076;-75
2022/03/05 04:06:24;;;;;;;;;59.75;37.50;;;;;15.07;60.85;101496.66;5096936;27;64844;-75
2022/03/05 04:08:50;;;;;;;;;54.25;39.25;;;;;15.09;60.46;101497.63;5078815;27;61958;-75
2022/03/05 04:11:18;;;;;;;;;48.00;38.00;;;;;15.09;60.62;101499.38;5081920;28;61668;-75
2022/03/05 04:13:47;;;;;;;;;58.00;38.00;;;;;15.06;60.64;101499.22;5081241;28;62053;-75
2022/03/05 04:16:13;;;;;;;;;60.25;42.25;;;;;15.07;60.66;101499.28;5080942;27;62844;-75
2022/03/05 04:18:39;;;;;;;;;64.25;40.75;;;;;15.09;60.69;101507.28;5081141;27;61721;-75
2022/03/05 04:21:06;;;;;;;;;49.75;34.75;;;;;15.10;60.25;101501.16;5081606;27;62037;-75
2022/03/05 04:23:32;;;;;;;;;39.75;32.25;;;;;15.10;59.96;101506.44;5081931;28;61903;-75
2022/03/05 04:25:58;;;;;;;;;44.25;30.25;;;;;15.07;59.81;101503.69;5080415;27;62957;-75
2022/03/05 04:28:23;;;;;;;;;38.00;33.50;;;;;15.09;59.76;101504.66;5079603;28;61961;-75
2022/03/05 04:30:49;;;;;;;;;48.50;36.25;;;;;15.09;59.42;101508.19;5081135;27;61983;-75
2022/03/05 04:33:14;;;;;;;;;49.00;33.00;;;;;15.08;59.41;101506.41;5079928;27;62041;-75
2022/03/05 04:35:39;;;;;;;;;43.00;31.75;;;;;15.06;59.35;101508.09;5079521;28;64531;-75
2022/03/05 04:38:05;;;;;;;;;45.75;35.75;;;;;15.08;59.64;101513.41;5079522;28;62057;-75
2022/03/05 04:40:31;;;;;;;;;48.25;37.50;;;;;15.09;59.42;101508.19;5081442;27;62071;-75
2022/03/05 04:42:56;;;;;;;;;39.50;31.00;;;;;15.08;58.94;101510.75;5080743;27;61773;-75
2022/03/05 04:45:22;;;;;;;;;46.75;34.75;;;;;15.08;59.05;101511.69;5079352;28;64479;-75
2022/03/05 04:47:47;;;;;;;;;38.75;25.50;;;;;15.07;58.78;101517.81;5080850;27;61890;-75
2022/03/05 04:50:13;;;;;;;;;35.50;25.50;;;;;15.04;58.73;101509.78;5080602;27;61715;-75
2022/03/05 04:52:39;;;;;;;;;38.50;30.25;;;;;15.04;59.15;101516.78;5081061;28;61790;-75
2022/03/05 04:55:06;;;;;;;;;36.75;26.25;;;;;15.06;58.88;101517.75;5079902;28;62832;-75
2022/03/05 04:57:33;;;;;;;;;30.50;26.50;;;;;15.09;58.64;101515.22;5096211;27;62386;-75
2022/03/05 04:59:58;;;;;;;;;41.50;31.00;;;;;15.05;58.68;101514.19;5083900;27;62141;-75
2022/03/05 05:02:24;;;;;;;;;30.50;27.25;;;;;14.98;58.85;101514.81;5083262;28;61879;-75
2022/03/05 05:04:49;;;;;;;;;33.00;29.25;;;;;14.99;59.00;101513.06;5099301;27;63677;-75
2022/03/05 05:07:15;;;;;;;;;37.25;27.25;;;;;14.99;58.91;101513.97;5081560;28;62147;-75
2022/03/05 05:09:41;;;;;;;;;50.50;32.25;;;;;15.00;58.78;101517.53;5083420;28;62220;-75
2022/03/05 05:12:08;;;;;;;;;37.25;33.75;;;;;14.99;58.91;101521.00;5084009;27;62216;-75
2022/03/05 05:14:34;;;;;;;;;35.25;28.50;;;;;14.97;59.04;101526.22;5083987;27;62022;-75
2022/03/05 05:16:59;;;;;;;;;37.75;30.00;;;;;14.97;59.08;101523.56;5084434;27;61851;-75
2022/03/05 05:19:25;;;;;;;;;43.50;33.00;;;;;14.97;59.00;101528.88;5083300;27;62064;-75
2022/03/05 05:21:59;;;;;;;;;34.00;28.50;;;;;14.96;59.10;101521.78;5083406;27;62327;-75
2022/03/05 05:24:27;;;;;;;;;40.00;32.00;;;;;14.96;59.25;101523.53;5083248;27;61865;-75
2022/03/05 05:26:53;;;;;;;;;38.25;26.50;;;;;14.96;59.07;101519.16;5083387;28;62512;-75
2022/03/05 05:29:18;;;;;;;;;37.75;26.00;;;;;14.95;59.06;101527.91;5083987;27;61887;-75
2022/03/05 05:31:44;;;;;;;;;34.50;26.50;;;;;14.92;59.12;101533.97;5082557;27;61893;-75
2022/03/05 05:34:10;;;;;;;;;41.75;29.25;;;;;14.92;59.24;101533.09;5081123;28;63596;-75
2022/03/05 05:36:38;;;;;;;;;42.00;34.50;;;;;14.90;59.18;101529.47;5099139;27;61894;-75
2022/03/05 05:39:07;;;;;;;;;39.50;28.50;;;;;14.88;58.93;101534.69;5099370;27;61994;-75
2022/03/05 05:41:34;;;;;;;;;38.50;32.00;;;;;14.87;59.37;101540.84;5098813;27;62086;-75
2022/03/05 05:44:00;;;;;;;;;37.00;33.00;;;;;14.85;59.32;101539.00;5083002;27;62161;-75
2022/03/05 05:46:26;;;;;;;;;43.75;35.25;;;;;14.83;59.46;101541.56;5099283;27;62469;-75
2022/03/05 05:48:52;;;;;;;;;39.00;31.50;;;;;14.84;59.36;101543.34;5083010;27;61882;-75
2022/03/05 05:51:17;;;;;;;;;47.50;33.50;;;;;14.84;59.50;101543.34;5083243;27;62111;-75
2022/03/05 05:53:43;;;;;;;;;33.25;30.00;;;;;14.84;59.46;101550.38;5097501;27;63778;-75
2022/03/05 05:56:09;;;;;;;;;40.50;31.25;;;;;14.83;59.50;101549.50;5083035;28;61823;-75
2022/03/05 05:58:35;;;;;;;;;42.25;30.75;;;;;14.84;59.56;101545.09;5083029;27;61846;-75
2022/03/05 06:01:00;;;;;;;;;45.50;33.50;;;;;14.83;59.41;101551.25;5099608;27;62314;-75
2022/03/05 06:03:26;;;;;;;;;33.00;31.00;;;;;14.79;59.58;101544.03;5082288;27;61826;-75
2022/03/05 06:05:51;;;;;;;;;52.50;34.50;;;;;14.77;59.72;101549.25;5081584;28;62397;-75
2022/03/05 06:08:17;;;;;;;;;38.75;33.50;;;;;14.78;59.57;101543.13;5079585;27;62213;-75
2022/03/05 06:10:42;;;;;;;;;43.75;34.50;;;;;14.79;59.93;101550.22;5081085;27;62049;-75
2022/03/05 06:13:08;;;;;;;;;43.50;38.00;;;;;14.77;59.73;101545.72;5083076;28;62773;-75
2022/03/05 06:15:33;;;;;;;;;49.75;38.50;;;;;14.75;59.79;101548.28;5082012;28;61822;-75
2022/03/05 06:17:58;;;;;;;;;48.00;42.00;;;;;14.76;59.80;101552.75;5083452;27;61904;-75
2022/03/05 06:20:24;;;;;;;;;45.00;34.25;;;;;14.78;59.75;101544.84;5083035;27;62282;-75
2022/03/05 06:22:49;;;;;;;;;49.25;35.25;;;;;14.79;59.80;101555.50;5081185;28;63441;-75
2022/03/05 06:25:17;;;;;;;;;46.50;37.25;;;;;14.79;59.89;101549.31;5083877;27;61828;-75
2022/03/05 06:27:44;;;;;;;;;50.25;37.25;;;;;14.81;59.84;101542.34;5083397;27;61852;-75
2022/03/05 06:30:11;;;;;;;;;38.25;35.75;;;;;14.81;59.83;101548.53;5082917;27;61862;-75
2022/03/05 06:32:36;;;;;;;;;46.50;41.75;;;;;14.80;59.79;101546.72;5083535;27;62046;-75
2022/03/05 06:35:05;;;;;;;;;45.50;35.50;;;;;14.82;59.77;101544.13;5083544;27;62389;-75
2022/03/05 06:37:30;;;;;;;;;44.75;36.50;;;;;14.85;60.04;101547.81;5082451;28;61890;-75
2022/03/05 06:39:56;;;;;;;;;43.75;35.50;;;;;14.88;59.98;101550.56;5083563;28;61849;-75
2022/03/05 06:42:21;;;;;;;;;47.75;36.50;;;;;14.88;59.33;101549.66;5083010;28;62454;-75
2022/03/05 06:44:47;;;;;;;;;39.75;32.25;;;;;14.92;59.46;101549.84;5083783;27;62262;-75
2022/03/05 06:47:12;;;;;;;;;44.25;35.00;;;;;14.95;59.45;101564.91;5099752;27;62612;-75
2022/03/05 06:49:37;;;;;;;;;39.00;31.50;;;;;14.97;59.56;101567.63;5083750;27;61861;-75
2022/03/05 06:52:03;;;;;;;;;52.00;35.25;;;;;14.99;59.30;101560.66;5082785;27;62088;-75
2022/03/05 06:54:28;;;;;;;;;47.75;38.75;;;;;15.03;59.50;101570.50;5083321;27;61778;-75
2022/03/05 06:56:54;;;;;;;;;45.00;38.75;;;;;15.06;59.41;101567.97;5083466;27;61974;-75
2022/03/05 06:59:19;;;;;;;;;43.75;33.75;;;;;15.08;59.35;101577.78;5083539;27;61928;-75
2022/03/05 07:01:45;;;;;;;;;39.75;35.00;;;;;15.10;59.08;101576.13;5081712;28;63605;-79
2022/03/05 07:04:10;;;;;;;;;46.25;36.00;;;;;15.12;59.43;101579.72;5082822;27;61707;-79
2022/03/05 07:06:37;;;;;;;;;52.25;34.50;;;;;15.15;58.80;101581.56;5083651;28;62066;-78
2022/03/05 07:09:04;;;;;;;;;54.50;37.00;;;;;15.18;59.12;101580.78;5080352;27;62072;-78
2022/03/05 07:11:29;;;;;;;;;37.00;32.75;;;;;15.20;59.15;101574.72;5082786;27;61856;-77
2022/03/05 07:13:55;;;;;;;;;28.75;27.25;;;;;15.20;58.79;101582.63;5081975;28;62124;-77
2022/03/05 07:16:20;;;;;;;;;51.50;38.25;;;;;15.19;58.76;101586.16;5082839;27;62206;-77
2022/03/05 07:18:46;;;;;;;;;55.00;37.00;;;;;15.20;58.50;101594.97;5082775;27;61867;-77
2022/03/05 07:21:11;;;;;;;;;46.25;35.75;;;;;15.08;58.56;101596.31;5082305;27;61945;-77
2022/03/05 07:23:37;;;;;;;;;46.25;32.75;;;;;15.00;58.73;101592.47;5081458;28;61818;-78
2022/03/05 07:26:02;;;;;;;;;47.75;39.25;;;;;14.95;58.73;101596.63;5082271;28;61833;-73
2022/03/05 07:28:28;;;;;;;;;57.50;44.50;;;;;14.98;58.64;101601.19;5089417;27;61871;-74
2022/03/05 07:30:55;;;;;;;;;50.75;36.25;;;;;14.97;58.88;101600.25;5081011;28;63180;-74
2022/03/05 07:33:21;;;;;;;;;54.25;38.75;;;;;15.02;58.65;101603.09;5081949;27;61878;-76
2022/03/05 07:35:47;;;;;;;;;44.75;36.25;;;;;15.09;58.77;101607.78;5081844;27;61861;-76
2022/03/05 07:38:12;;;;;;;;;46.50;32.50;;;;;15.15;58.58;101607.13;5082076;27;62294;-75
2022/03/05 07:40:38;;;;;;;;;51.25;38.25;;;;;15.13;58.15;101600.03;5081135;27;62016;-75
2022/03/05 07:43:03;;;;;;;;;50.75;39.00;;;;;15.17;58.34;101608.97;5072398;27;61958;-76
2022/03/05 07:45:29;;;;;;;;;57.75;38.75;;;;;15.18;57.93;101608.13;5081461;28;61956;-75
2022/03/05 07:47:54;;;;;;;;;44.75;38.25;;;;;15.17;57.83;101610.69;5067515;28;62349;-76
2022/03/05 07:50:20;;;;;;;;;68.75;42.50;;;;;15.24;58.20;101618.06;5081273;27;62120;-75
2022/03/05 07:52:45;;;;;;;;;51.75;39.00;;;;;15.18;58.04;101609.88;5081723;27;61981;-75
2022/03/05 07:55:11;;;;;;;;;59.00;41.00;;;;;15.24;58.35;101616.31;5082056;27;61925;-76
2022/03/05 07:57:37;;;;;;;;;55.25;41.75;;;;;15.31;58.19;101618.34;5080193;27;62240;-75
2022/03/05 08:00:05;;;;;;;;;60.25;41.50;;;;;15.36;58.20;101614.97;5079825;28;63625;-76
2022/03/05 08:02:31;;;;;;;;;48.00;38.50;;;;;15.39;58.01;101623.94;5085216;27;61897;-76
2022/03/05 08:04:57;;;;;;;;;51.25;32.00;;;;;15.47;57.89;101626.88;5080243;27;62450;-75
2022/03/05 08:07:23;;;;;;;;;51.00;38.00;;;;;15.57;57.59;101623.72;5095774;27;61828;-76
2022/03/05 08:09:48;;;;;;;;;50.50;37.00;;;;;15.65;57.05;101634.59;5079867;28;63667;-76
2022/03/05 08:12:14;;;;;;;;;44.75;36.25;;;;;15.63;56.72;101626.59;5097889;27;61834;-77
2022/03/05 08:14:41;;;;;;;;;49.50;40.25;;;;;15.69;57.15;101628.56;5082288;27;62005;-75
2022/03/05 08:17:07;;;;;;;;;44.50;38.00;;;;;15.78;57.06;101625.41;5098583;27;62045;-77
2022/03/05 08:19:33;;;;;;;;;57.75;39.50;;;;;15.83;56.70;101634.41;5081415;28;61834;-76
2022/03/05 08:21:59;;;;;;;;;46.00;33.50;;;;;15.78;56.57;101630.69;5082076;27;61730;-77
2022/03/05 08:24:24;;;;;;;;;59.25;41.50;;;;;15.80;56.70;101627.25;5082505;27;61945;-77
2022/03/05 08:26:50;;;;;;;;;50.00;40.50;;;;;15.80;56.29;101634.31;5082330;27;61861;-77
2022/03/05 08:29:15;;;;;;;;;49.50;37.25;;;;;15.78;56.08;101625.41;5080331;28;63090;-77
2022/03/05 08:31:41;;;;;;;;;45.25;39.75;;;;;15.78;56.72;101622.75;5098062;27;61747;-78
2022/03/05 08:34:07;;;;;;;;;53.00;38.25;;;;;15.88;56.36;101627.53;5097223;27;62387;-76
2022/03/05 08:36:32;;;;;;;;;58.25;41.50;;;;;15.97;56.00;101635.81;5098915;27;61781;-77
2022/03/05 08:38:58;;;;;;;;;55.75;40.00;;;;;16.10;56.33;101630.09;5090892;27;63161;-76
2022/03/05 08:41:25;;;;;;;;;54.75;40.50;;;;;16.20;55.67;101622.50;5082924;27;62013;-76
2022/03/05 08:43:52;;;;;;;;;59.00;42.00;;;;;16.22;55.37;101631.41;5081388;28;61822;-76
2022/03/05 08:46:18;;;;;;;;;46.25;37.25;;;;;16.24;55.57;101627.03;5081590;28;62163;-76
2022/03/05 08:48:44;;;;;;;;;53.00;40.25;;;;;16.33;55.32;101630.00;5080154;28;63494;-77
2022/03/05 08:51:09;;;;;;;;;61.00;42.00;;;;;16.41;55.09;101630.25;5082569;28;61943;-77
2022/03/05 08:53:35;;;;;;;;;48.00;37.00;;;;;16.50;55.03;101630.59;5082653;27;61728;-75
2022/03/05 08:56:00;;;;;;;;;57.50;42.25;;;;;16.60;55.16;101623.81;5082120;28;62242;-75
2022/03/05 08:58:26;;;;;;;;;55.50;40.00;;;;;16.68;54.76;101628.53;5081723;27;62029;-76
2022/03/05 09:00:52;;;;;;;;;62.00;46.75;;;;;16.78;54.73;101624.44;5082662;27;61701;-76
2022/03/05 09:03:18;;;;;;;;;58.25;43.00;;;;;16.80;53.89;101636.03;5073257;27;62160;-75
2022/03/05 09:05:46;;;;;;;;;50.25;36.25;;;;;16.86;54.19;101630.94;5081422;27;61809;-74
2022/03/05 09:08:14;;;;;;;;;54.50;41.75;;;;;16.98;54.17;101627.75;5080051;27;62102;-76
2022/03/05 09:10:42;;;;;;;;;59.00;40.25;;;;;17.05;53.99;101631.50;5080853;28;61958;-76
2022/03/05 09:13:07;;;;;;;;;51.50;39.00;;;;;17.13;53.86;101630.00;5080367;28;62039;-75
2022/03/05 09:15:33;;;;;;;;;51.25;40.00;;;;;17.21;52.86;101620.53;5082529;28;61998;-76
2022/03/05 09:17:58;;;;;;;;;53.25;40.50;;;;;17.23;53.13;101618.81;5079923;28;63907;-74
2022/03/05 09:20:24;;;;;;;;;59.25;42.25;;;;;17.35;53.01;101626.25;5081580;27;62155;-74
2022/03/05 09:22:49;;;;;;;;;53.25;42.00;;;;;17.45;52.47;101630.97;5096734;27;61926;-76
2022/03/05 09:25:14;;;;;;;;;55.50;39.25;;;;;17.55;52.73;101633.06;5082548;27;61791;-75
2022/03/05 09:27:40;;;;;;;;;58.00;43.50;;;;;17.71;52.93;101630.84;5080018;28;64650;-77
2022/03/05 09:30:07;;;;;;;;;52.75;39.50;;;;;17.90;52.69;101633.19;5081366;28;62031;-76
2022/03/05 09:32:32;;;;;;;;;52.25;40.75;;;;;18.09;51.86;101631.06;5081622;27;61718;-76
2022/03/05 09:35:03;;;;;;;;;55.50;42.00;;;;;18.10;50.84;101623.13;5081167;28;61811;-76
2022/03/05 09:37:30;;;;;;;;;59.75;41.75;;;;;18.19;51.85;101627.78;5080876;28;62044;-76
2022/03/05 09:39:58;;;;;;;;;55.00;43.00;;;;;18.37;51.65;101630.03;5080872;27;62230;-80
2022/03/05 09:42:24;;;;;;;;;57.50;42.00;;;;;18.49;50.56;101622.38;5078052;28;62191;-77
2022/03/05 09:44:50;;;;;;;;;59.25;43.75;;;;;18.59;50.85;101627.06;5080757;28;61971;-84
2022/03/05 09:47:16;;;;;;;;;61.75;45.50;;;;;18.59;50.58;101624.41;5084665;27;63205;-76
2022/03/05 09:49:41;;;;;;;;;58.00;43.50;;;;;18.75;50.27;101623.00;5084877;27;62042;-73
2022/03/05 09:52:08;;;;;;;;;58.00;44.25;;;;;18.87;50.29;101627.75;5085171;27;61907;-75
2022/03/05 09:54:34;;;;;;;;;64.75;42.75;;;;;19.03;49.65;101628.13;5084934;27;62125;-75
2022/03/05 09:57:00;;;;;;;;;55.00;42.00;;;;;19.16;49.49;101624.88;5082767;27;64526;-76
2022/03/05 09:59:25;;;;;;;;;54.50;42.00;;;;;19.31;49.21;101621.66;5083765;28;61783;-75
2022/03/05 10:01:52;;;;;;;;;51.25;43.75;;;;;19.40;48.70;101625.41;5085076;28;61726;-75
2022/03/05 10:04:23;;;;;;;;;56.50;42.25;;;;;19.47;49.08;101626.44;5083991;27;62055;-75
2022/03/05 10:07:12;;;;;;;;;61.00;45.25;;;;;19.45;49.43;101628.16;5080909;28;63640;-75
2022/03/05 10:09:39;;;;;;;;;52.75;40.00;;;;;19.52;48.54;101629.22;5073839;28;62021;-75
2022/03/05 10:12:25;;;;;;;;;59.25;42.25;;;;;19.61;48.93;101624.97;5080109;28;62143;-75
2022/03/05 10:15:05;;;;;;;;;57.50;41.00;;;;;19.77;48.66;101628.91;5085117;27;61748;-76
2022/03/05 10:17:46;;;;;;;;;56.75;41.00;;;;;19.84;48.14;101629.00;5083414;27;61975;-76
2022/03/05 10:20:11;;;;;;;;;57.25;45.75;;;;;19.81;46.80;101628.06;5093810;27;61781;-76
2022/03/05 10:22:37;;;;;;;;;67.00;48.75;;;;;19.59;47.17;101628.47;5070503;27;61688;-75
2022/03/05 10:25:02;;;;;;;;;61.75;41.75;;;;;19.62;47.96;101628.53;5085117;27;62415;-76
2022/03/05 10:27:30;;;;;;;;;54.50;42.50;;;;;19.81;47.89;101625.41;5082071;28;63409;-75
2022/03/05 10:29:56;;;;;;;;;57.25;45.75;;;;;19.98;46.95;101619.50;5084487;27;61854;-76
2022/03/05 10:32:22;;;;;;;;;57.75;43.00;;;;;20.13;46.86;101617.13;5084325;27;61858;-76
2022/03/05 10:34:51;;;;;;;;;62.00;42.75;;;;;20.33;46.59;101624.59;5069576;28;62230;-77
2022/03/05 10:37:18;;;;;;;;;52.75;43.50;;;;;20.42;45.52;101614.09;5081855;28;61980;-77
2022/03/05 10:39:45;;;;;;;;;58.75;42.75;;;;;20.43;47.41;101618.56;5082133;28;62101;-78
2022/03/05 10:42:26;;;;;;;;;54.50;43.00;;;;;20.46;46.57;101615.97;5085381;27;62038;-78
2022/03/05 10:45:07;;;;;;;;;62.75;44.25;;;;;20.57;45.78;101619.72;5080412;28;62145;-78
2022/03/05 10:47:42;;;;;;;;;55.50;42.50;;;;;20.64;45.05;101618.06;5081601;27;61909;-75
2022/03/05 10:50:30;;;;;;;;;49.00;39.00;;;;;20.71;44.60;101611.94;5081327;28;62422;-76
2022/03/05 10:53:01;;;;;;;;;59.75;43.25;;;;;20.86;44.66;101613.94;5083355;27;61804;-76
2022/03/05 10:55:36;;;;;;;;;60.25;44.00;;;;;21.00;44.89;101619.50;5083199;27;62027;-76
2022/03/05 10:58:14;;;;;;;;;54.25;41.50;;;;;21.19;44.67;101623.34;5076201;28;65161;-77
2022/03/05 11:00:40;;;;;;;;;63.50;40.25;;;;;21.34;43.76;101612.00;5080597;28;61747;-76
2022/03/05 11:03:07;;;;;;;;;56.25;41.50;;;;;21.45;43.43;101610.38;5084316;27;61786;-76
2022/03/05 11:05:34;;;;;;;;;52.25;41.75;;;;;21.52;43.05;101611.34;5097922;27;62121;-76